createdAt,value
2018-03-02T00:01:03.221Z,98786.78
2018-03-02T00:03:30.715Z,98767.55
2018-03-02T00:05:58.451Z,98772.20
2018-03-02T00:08:29.673Z,98758.07
2018-03-02T00:10:57.155Z,98766.09
2018-03-02T00:13:24.651Z,98756.67
2018-03-02T00:15:52.912Z,98767.28
2018-03-02T00:18:20.419Z,98763.00
2018-03-02T00:20:47.924Z,98754.03
2018-03-02T00:23:15.443Z,98760.02
2018-03-02T00:25:42.935Z,98754.03
2018-03-02T00:28:10.454Z,98761.72
2018-03-02T00:30:38.851Z,98765.14
2018-03-02T00:33:06.360Z,98771.54
2018-03-02T00:35:33.853Z,98769.81
2018-03-02T00:38:01.356Z,98786.02
2018-03-02T00:40:28.862Z,98788.14
2018-03-02T00:42:56.343Z,98788.14
2018-03-02T00:45:23.849Z,98790.65
2018-03-02T00:47:51.327Z,98790.63
2018-03-02T00:50:18.825Z,98791.89
2018-03-02T00:52:46.592Z,98788.05
2018-03-02T00:55:14.080Z,98793.59
2018-03-02T00:57:41.560Z,98789.72
2018-03-02T01:00:09.095Z,98778.14
2018-03-02T01:02:36.586Z,98786.66
2018-03-02T01:05:04.081Z,98776.00
2018-03-02T01:07:31.692Z,98764.48
2018-03-02T01:09:59.196Z,98764.92
2018-03-02T01:12:27.507Z,98752.11
2018-03-02T01:14:55.018Z,98737.61
2018-03-02T01:17:22.541Z,98753.86
2018-03-02T01:19:50.157Z,98751.33
2018-03-02T01:22:17.651Z,98732.54
2018-03-02T01:24:45.143Z,98739.80
2018-03-02T01:27:12.664Z,98725.72
2018-03-02T01:29:40.226Z,98732.98
2018-03-02T01:32:07.744Z,98717.12
2018-03-02T01:34:35.255Z,98719.31
2018-03-02T01:37:02.750Z,98715.84
2018-03-02T01:39:30.233Z,98729.06
2018-03-02T01:41:57.712Z,98708.20
2018-03-02T01:44:25.228Z,98729.53
2018-03-02T01:46:52.712Z,98728.64
2018-03-02T01:49:20.192Z,98739.80
2018-03-02T01:51:49.649Z,98758.17
2018-03-02T01:54:17.169Z,98762.85
2018-03-02T01:56:44.672Z,98751.80
2018-03-02T01:59:12.183Z,98749.28
2018-03-02T02:01:39.679Z,98770.68
2018-03-02T02:04:07.170Z,98775.44
2018-03-02T02:06:34.678Z,98769.89
2018-03-02T02:09:02.165Z,98769.08
2018-03-02T02:11:29.656Z,98768.30
2018-03-02T02:13:57.151Z,98768.76
2018-03-02T02:16:24.643Z,98767.47
2018-03-02T02:18:52.129Z,98762.80
2018-03-02T02:21:19.649Z,98751.33
2018-03-02T02:23:47.177Z,98764.57
2018-03-02T02:26:14.691Z,98769.72
2018-03-02T02:28:42.165Z,98786.78
2018-03-02T02:31:09.705Z,98790.64
2018-03-02T02:33:37.243Z,98782.96
2018-03-02T02:36:04.718Z,98786.44
2018-03-02T02:38:32.218Z,98789.38
2018-03-02T02:40:59.735Z,98784.31
2018-03-02T02:43:27.212Z,98772.80
2018-03-02T02:45:54.709Z,98783.48
2018-03-02T02:48:22.203Z,98774.09
2018-03-02T02:50:49.685Z,98772.81
2018-03-02T02:53:17.185Z,98778.36
2018-03-02T02:55:44.712Z,98769.41
2018-03-02T02:58:12.215Z,98763.03
2018-03-02T03:00:39.727Z,98751.52
2018-03-02T03:03:07.219Z,98765.23
2018-03-02T03:05:34.712Z,98749.45
2018-03-02T03:08:02.200Z,98759.29
2018-03-02T03:10:29.731Z,98759.71
2018-03-02T03:12:57.212Z,98749.91
2018-03-02T03:15:24.728Z,98751.19
2018-03-02T03:17:52.229Z,98743.52
2018-03-02T03:20:19.737Z,98735.05
2018-03-02T03:22:47.243Z,98746.15
2018-03-02T03:25:14.753Z,98742.33
2018-03-02T03:27:42.261Z,98735.51
2018-03-02T03:30:09.756Z,98728.30
2018-03-02T03:32:37.254Z,98724.91
2018-03-02T03:35:04.742Z,98708.28
2018-03-02T03:37:32.232Z,98700.20
2018-03-02T03:39:59.725Z,98708.36
2018-03-02T03:42:27.228Z,98699.40
2018-03-02T03:44:54.708Z,98705.83
2018-03-02T03:47:22.188Z,98700.73
2018-03-02T03:49:49.696Z,98690.98
2018-03-02T03:52:17.182Z,98706.78
2018-03-02T03:54:44.704Z,98696.56
2018-03-02T03:57:12.213Z,98690.17
2018-03-02T03:59:39.695Z,98692.73
2018-03-02T04:02:07.195Z,98682.91
2018-03-02T04:04:34.696Z,98678.64
2018-03-02T04:07:02.188Z,98662.41
2018-03-02T04:09:29.667Z,98665.87
2018-03-02T04:11:57.165Z,98671.83
2018-03-02T04:14:24.638Z,98664.12
2018-03-02T04:16:52.123Z,98672.25
2018-03-02T04:19:19.628Z,98673.55
2018-03-02T04:21:47.146Z,98679.11
2018-03-02T04:24:14.644Z,98677.89
2018-03-02T04:26:42.135Z,98688.56
2018-03-02T04:29:09.649Z,98686.86
2018-03-02T04:31:37.167Z,98684.39
2018-03-02T04:34:04.685Z,98689.50
2018-03-02T04:36:32.168Z,98692.09
2018-03-02T04:38:59.723Z,98693.78
2018-03-02T04:41:27.205Z,98707.00
2018-03-02T04:43:54.729Z,98707.42
2018-03-02T04:46:22.231Z,98710.84
2018-03-02T04:48:49.748Z,98724.94
2018-03-02T04:51:17.239Z,98723.24
2018-03-02T04:53:44.736Z,98715.59
2018-03-02T04:56:12.234Z,98710.52
2018-03-02T04:58:39.711Z,98708.38
2018-03-02T05:01:07.244Z,98708.82
2018-03-02T05:03:34.755Z,98728.02
2018-03-02T05:06:02.243Z,98716.06
2018-03-02T05:08:29.762Z,98709.69
2018-03-02T05:10:57.256Z,98705.42
2018-03-02T05:13:24.738Z,98705.41
2018-03-02T05:15:52.226Z,98693.91
2018-03-02T05:18:19.739Z,98705.00
2018-03-02T05:20:47.212Z,98696.91
2018-03-02T05:23:14.691Z,98698.63
2018-03-02T05:25:42.193Z,98701.62
2018-03-02T05:28:09.683Z,98691.86
2018-03-02T05:30:37.187Z,98692.30
2018-03-02T05:33:04.695Z,98690.16
2018-03-02T05:35:32.190Z,98696.98
2018-03-02T05:37:59.694Z,98702.55
2018-03-02T05:40:27.220Z,98694.89
2018-03-02T05:42:54.740Z,98698.73
2018-03-02T05:45:22.212Z,98691.91
2018-03-02T05:47:49.703Z,98703.87
2018-03-02T05:50:17.195Z,98703.00
2018-03-02T05:52:44.682Z,98700.00
2018-03-02T05:55:12.186Z,98697.00
2018-03-02T05:57:39.692Z,98697.02
2018-03-02T06:00:07.254Z,98691.47
2018-03-02T06:02:34.720Z,98698.30
2018-03-02T06:05:02.201Z,98701.30
2018-03-02T06:07:29.717Z,98698.33
2018-03-02T06:09:57.215Z,98704.34
2018-03-02T06:12:24.785Z,98699.66
2018-03-02T06:14:52.281Z,98686.05
2018-03-02T06:17:19.787Z,98683.55
2018-03-02T06:19:47.294Z,98684.86
2018-03-02T06:22:14.804Z,98666.53
2018-03-02T06:24:42.302Z,98677.69
2018-03-02T06:27:09.799Z,98686.22
2018-03-02T06:29:37.308Z,98672.19
2018-03-02T06:32:04.796Z,98678.56
2018-03-02T06:34:32.283Z,98676.84
2018-03-02T06:36:59.792Z,98677.73
2018-03-02T06:39:27.267Z,98666.66
2018-03-02T06:41:54.759Z,98679.45
2018-03-02T06:44:22.260Z,98687.55
2018-03-02T06:46:49.772Z,98676.47
2018-03-02T06:49:17.271Z,98683.29
2018-03-02T06:51:44.768Z,98680.31
2018-03-02T06:54:12.285Z,98674.75
2018-03-02T06:56:39.783Z,98680.28
2018-03-02T06:59:07.289Z,98683.34
2018-03-02T07:01:34.779Z,98668.80
2018-03-02T07:04:02.274Z,98664.53
2018-03-02T07:06:29.784Z,98662.40
2018-03-02T07:08:57.292Z,98660.67
2018-03-02T07:11:24.798Z,98664.94
2018-03-02T07:13:52.315Z,98657.28
2018-03-02T07:16:19.831Z,98660.66
2018-03-02T07:18:47.287Z,98650.41
2018-03-02T07:21:14.843Z,98649.98
2018-03-02T07:23:42.347Z,98652.53
2018-03-02T07:26:10.679Z,98651.25
2018-03-02T07:28:38.176Z,98654.58
2018-03-02T07:31:05.709Z,98645.17
2018-03-02T07:33:33.280Z,98658.39
2018-03-02T07:36:00.776Z,98647.66
2018-03-02T07:38:28.301Z,98646.34
2018-03-02T07:40:55.808Z,98654.81
2018-03-02T07:43:23.290Z,98650.09
2018-03-02T07:45:50.982Z,98651.70
2018-03-02T07:48:18.480Z,98646.53
2018-03-02T07:50:45.957Z,98648.23
2018-03-02T07:53:13.471Z,98646.45
2018-03-02T07:55:40.946Z,98640.47
2018-03-02T07:58:08.460Z,98666.47
2018-03-02T08:00:35.934Z,98668.97
2018-03-02T08:03:03.431Z,98671.09
2018-03-02T08:05:30.951Z,98677.05
2018-03-02T08:07:58.465Z,98684.70
2018-03-02T08:10:25.976Z,98697.84
2018-03-02T08:12:53.470Z,98702.11
2018-03-02T08:15:20.963Z,98706.36
2018-03-02T08:17:48.467Z,98702.15
2018-03-02T08:20:15.967Z,98720.06
2018-03-02T08:25:17.995Z,98720.47
2018-03-02T08:27:45.492Z,98710.98
2018-03-02T08:30:13.004Z,98711.38
2018-03-02T08:32:40.511Z,98732.70
2018-03-02T08:35:07.996Z,98712.59
2018-03-02T08:37:35.527Z,98721.92
2018-03-02T08:40:03.019Z,98715.87
2018-03-02T08:42:31.249Z,98709.44
2018-03-02T08:44:58.743Z,98728.13
2018-03-02T08:47:26.247Z,98739.20
2018-03-02T08:49:53.762Z,98730.64
2018-03-02T08:52:21.309Z,98742.92
2018-03-02T08:54:48.808Z,98739.84
2018-03-02T08:57:16.314Z,98732.56
2018-03-02T08:59:43.869Z,98749.13
2018-03-02T09:02:11.360Z,98745.61
2018-03-02T09:04:38.858Z,98737.92
2018-03-02T09:07:06.352Z,98742.95
2018-03-02T09:09:33.847Z,98747.59
2018-03-02T09:12:01.365Z,98743.23
2018-03-02T09:14:28.876Z,98738.45
2018-03-02T09:16:56.371Z,98755.48
2018-03-02T09:19:23.900Z,98748.59
2018-03-02T09:21:51.395Z,98755.83
2018-03-02T09:24:18.953Z,98759.63
2018-03-02T09:26:46.478Z,98763.03
2018-03-02T09:29:13.977Z,98776.72
2018-03-02T09:31:41.513Z,98771.17
2018-03-02T09:34:09.003Z,98759.63
2018-03-02T09:36:36.516Z,98769.45
2018-03-02T09:39:04.060Z,98773.66
2018-03-02T09:41:31.581Z,98773.64
2018-03-02T09:43:59.094Z,98766.72
2018-03-02T09:46:26.590Z,98770.44
2018-03-02T09:48:54.083Z,98759.64
2018-03-02T09:51:21.563Z,98756.08
2018-03-02T09:53:49.063Z,98772.55
2018-03-02T09:56:16.544Z,98764.30
2018-03-02T09:58:44.071Z,98772.26
2018-03-02T10:01:11.615Z,98769.62
2018-03-02T10:03:39.103Z,98770.02
2018-03-02T10:06:06.599Z,98767.77
2018-03-02T10:08:34.093Z,98770.67
2018-03-02T10:11:01.596Z,98765.86
2018-03-02T10:13:29.107Z,98771.70
2018-03-02T10:15:56.607Z,98766.50
2018-03-02T10:18:24.147Z,98766.47
2018-03-02T10:20:51.681Z,98774.13
2018-03-02T10:23:19.216Z,98761.00
2018-03-02T10:25:46.714Z,98763.52
2018-03-02T10:28:14.283Z,98764.80
2018-03-02T10:30:41.791Z,98757.16
2018-03-02T10:33:09.292Z,98751.17
2018-03-02T10:35:36.803Z,98770.39
2018-03-02T10:38:04.297Z,98770.39
2018-03-02T10:40:31.815Z,98769.11
2018-03-02T10:42:59.304Z,98768.27
2018-03-02T10:45:26.839Z,98766.57
2018-03-02T10:47:54.346Z,98769.55
2018-03-02T10:50:21.931Z,98792.98
2018-03-02T10:52:49.447Z,98787.91
2018-03-02T10:55:16.962Z,98796.03
2018-03-02T10:57:44.446Z,98801.53
2018-03-02T11:00:11.997Z,98804.58
2018-03-02T11:02:45.130Z,98808.42
2018-03-02T11:05:12.688Z,98812.75
2018-03-02T11:07:40.211Z,98827.66
2018-03-02T11:10:07.685Z,98826.83
2018-03-02T11:12:35.260Z,98827.25
2018-03-02T11:15:02.784Z,98821.26
2018-03-02T11:17:30.300Z,98810.14
2018-03-02T11:19:57.887Z,98821.66
2018-03-02T11:22:25.405Z,98825.08
2018-03-02T11:24:52.906Z,98817.81
2018-03-02T11:27:21.051Z,98825.89
2018-03-02T11:29:48.636Z,98821.16
2018-03-02T11:32:16.471Z,98824.14
2018-03-02T11:34:44.081Z,98818.59
2018-03-02T11:37:11.604Z,98811.30
2018-03-02T11:39:39.119Z,98807.88
2018-03-02T11:42:06.647Z,98811.30
2018-03-02T11:44:34.148Z,98801.49
2018-03-02T11:47:01.654Z,98804.91
2018-03-02T11:49:29.156Z,98796.34
2018-03-02T11:51:56.671Z,98802.75
2018-03-02T11:54:24.249Z,98790.38
2018-03-02T11:56:51.753Z,98795.06
2018-03-02T11:59:19.435Z,98783.95
2018-03-02T12:01:46.941Z,98795.41
2018-03-02T12:04:14.487Z,98773.93
2018-03-02T12:06:41.983Z,98777.77
2018-03-02T12:09:09.497Z,98783.66
2018-03-02T12:11:36.992Z,98787.45
2018-03-02T12:14:04.498Z,98793.79
2018-03-02T12:16:32.027Z,98789.05
2018-03-02T12:18:59.521Z,98807.00
2018-03-02T12:21:27.032Z,98808.20
2018-03-02T12:23:54.539Z,98832.95
2018-03-02T12:26:22.919Z,98815.84
2018-03-02T12:28:50.427Z,98825.66
2018-03-02T12:31:17.928Z,98816.69
2018-03-02T12:33:45.455Z,98817.16
2018-03-02T12:36:12.942Z,98792.80
2018-03-02T12:38:40.458Z,98813.28
2018-03-02T12:41:07.990Z,98802.95
2018-03-02T12:43:35.481Z,98798.64
2018-03-02T12:46:02.998Z,98801.56
2018-03-02T12:48:30.560Z,98801.54
2018-03-02T12:50:58.072Z,98810.07
2018-03-02T12:53:25.599Z,98807.01
2018-03-02T12:55:53.198Z,98822.32
2018-03-02T12:58:20.809Z,98816.67
2018-03-02T13:00:48.341Z,98822.58
2018-03-02T13:03:15.961Z,98809.77
2018-03-02T13:05:43.647Z,98809.30
2018-03-02T13:08:11.174Z,98819.05
2018-03-02T13:10:38.666Z,98814.34
2018-03-02T13:13:06.209Z,98796.37
2018-03-02T13:15:33.732Z,98790.82
2018-03-02T13:18:01.348Z,98789.54
2018-03-02T13:20:28.906Z,98783.16
2018-03-02T13:22:56.438Z,98798.09
2018-03-02T13:25:24.131Z,98780.12
2018-03-02T13:28:03.569Z,98789.95
2018-03-02T13:30:31.307Z,98787.00
2018-03-02T13:33:10.490Z,98787.81
2018-03-02T13:35:37.995Z,98786.92
2018-03-02T13:38:06.631Z,98778.75
2018-03-02T13:40:45.631Z,98776.19
2018-03-02T13:43:13.199Z,98770.59
2018-03-02T13:45:40.753Z,98776.17
2018-03-02T13:51:13.789Z,98788.16
2018-03-02T13:53:41.401Z,98775.80
2018-03-02T13:59:03.956Z,98757.02
2018-03-02T14:01:31.448Z,98755.31
2018-03-02T14:04:10.766Z,98746.31
2018-03-02T14:06:38.274Z,98742.80
2018-03-02T14:09:05.759Z,98742.30
2018-03-02T14:11:33.276Z,98751.65
2018-03-02T14:14:00.779Z,98746.02
2018-03-02T14:16:28.272Z,98734.45
2018-03-02T14:18:55.800Z,98750.97
2018-03-02T14:21:23.309Z,98752.67
2018-03-02T14:23:52.343Z,98746.59
2018-03-02T14:26:20.789Z,98743.92
2018-03-02T14:28:48.609Z,98736.11
2018-03-02T14:31:16.107Z,98741.09
2018-03-02T14:33:43.607Z,98739.22
2018-03-02T14:36:11.128Z,98751.10
2018-03-02T14:38:38.642Z,98772.91
2018-03-02T14:41:06.128Z,98794.32
2018-03-02T14:43:33.620Z,98811.10
2018-03-02T14:46:01.117Z,98821.05
2018-03-02T14:48:28.600Z,98824.09
2018-03-02T14:50:56.123Z,98822.91
2018-03-02T14:53:23.638Z,98829.88
2018-03-02T14:55:51.760Z,98820.55
2018-03-02T14:58:19.284Z,98823.66
2018-03-02T15:00:46.762Z,98832.67
2018-03-02T15:03:14.329Z,98819.95
2018-03-02T15:05:41.842Z,98824.68
2018-03-02T15:08:09.384Z,98820.92
2018-03-02T15:10:36.962Z,98830.83
2018-03-02T15:13:04.476Z,98830.00
2018-03-02T15:15:31.994Z,98844.57
2018-03-02T15:17:59.479Z,98839.00
2018-03-02T15:20:26.975Z,98836.52
2018-03-02T15:22:54.498Z,98836.11
2018-03-02T15:25:21.991Z,98838.70
2018-03-02T15:27:49.476Z,98845.11
2018-03-02T15:30:16.968Z,98835.78
2018-03-02T15:32:44.467Z,98846.45
2018-03-02T15:35:12.080Z,98838.34
2018-03-02T15:37:39.571Z,98836.22
2018-03-02T15:40:07.143Z,98838.34
2018-03-02T15:42:34.626Z,98832.38
2018-03-02T15:45:02.116Z,98831.93
2018-03-02T15:47:29.607Z,98832.34
2018-03-02T15:49:57.144Z,98825.47
2018-03-02T15:52:24.636Z,98820.39
2018-03-02T15:54:52.132Z,98828.00
2018-03-02T15:57:19.656Z,98824.60
2018-03-02T15:59:47.167Z,98822.45
2018-03-02T16:02:14.719Z,98831.02
2018-03-02T16:04:42.297Z,98819.89
2018-03-02T16:07:09.828Z,98822.88
2018-03-02T16:09:37.435Z,98819.87
2018-03-02T16:12:04.963Z,98820.70
2018-03-02T16:14:32.466Z,98819.84
2018-03-02T16:16:59.959Z,98823.72
2018-03-02T16:19:27.432Z,98821.55
2018-03-02T16:21:54.952Z,98822.41
2018-03-02T16:24:22.517Z,98826.25
2018-03-02T16:26:50.039Z,98824.58
2018-03-02T16:29:17.563Z,98822.03
2018-03-02T16:31:45.039Z,98821.25
2018-03-02T16:34:12.596Z,98814.45
2018-03-02T16:36:40.105Z,98808.88
2018-03-02T16:39:07.625Z,98803.33
2018-03-02T16:41:35.128Z,98797.75
2018-03-02T16:44:02.654Z,98782.34
2018-03-02T16:46:30.184Z,98777.13
2018-03-02T16:48:57.664Z,98774.88
2018-03-02T16:51:25.189Z,98780.30
2018-03-02T16:53:52.696Z,98780.53
2018-03-02T16:56:20.195Z,98780.46
2018-03-02T16:58:47.698Z,98786.77
2018-03-02T17:01:15.195Z,98776.87
2018-03-02T17:03:42.696Z,98783.67
2018-03-02T17:06:10.198Z,98786.69
2018-03-02T17:08:37.731Z,98797.36
2018-03-02T17:11:05.271Z,98799.61
2018-03-02T17:13:32.763Z,98809.66
2018-03-02T17:16:00.239Z,98796.47
2018-03-02T17:18:27.780Z,98802.50
2018-03-02T17:20:55.324Z,98796.13
2018-03-02T17:23:22.839Z,98803.91
2018-03-02T17:25:50.331Z,98798.41
2018-03-02T17:28:17.869Z,98805.34
2018-03-02T17:30:45.404Z,98801.16
2018-03-02T17:33:12.976Z,98808.95
2018-03-02T17:35:40.533Z,98804.39
2018-03-02T17:38:08.044Z,98807.06
2018-03-02T17:40:35.550Z,98811.37
2018-03-02T17:43:03.178Z,98823.44
2018-03-02T17:45:30.684Z,98818.86
2018-03-02T17:47:58.219Z,98824.87
2018-03-02T17:50:25.744Z,98821.10
2018-03-02T17:52:53.223Z,98826.33
2018-03-02T17:55:20.722Z,98826.02
2018-03-02T17:57:48.242Z,98823.91
2018-03-02T18:00:15.777Z,98827.86
2018-03-02T18:05:14.383Z,98832.59
2018-03-02T18:07:41.888Z,98833.92
2018-03-02T18:10:09.383Z,98831.83
2018-03-02T18:12:36.898Z,98833.97
2018-03-02T18:15:04.472Z,98831.48
2018-03-02T18:17:32.018Z,98838.78
2018-03-02T18:19:59.515Z,98832.81
2018-03-02T18:22:27.017Z,98840.56
2018-03-02T18:24:54.538Z,98835.45
2018-03-02T18:27:22.088Z,98838.04
2018-03-02T18:29:49.623Z,98832.91
2018-03-02T18:32:17.107Z,98830.80
2018-03-02T18:34:44.601Z,98837.25
2018-03-02T18:37:12.099Z,98836.78
2018-03-02T18:39:39.584Z,98829.59
2018-03-02T18:42:07.153Z,98826.19
2018-03-02T18:44:34.676Z,98829.61
2018-03-02T18:47:02.209Z,98832.17
2018-03-02T18:49:29.695Z,98814.66
2018-03-02T18:51:57.196Z,98815.54
2018-03-02T18:54:24.700Z,98812.52
2018-03-02T18:56:52.194Z,98809.09
2018-03-02T18:59:19.709Z,98806.99
2018-03-02T19:01:47.200Z,98799.72
2018-03-02T19:04:14.685Z,98795.04
2018-03-02T19:06:42.195Z,98790.85
2018-03-02T19:09:09.705Z,98789.16
2018-03-02T19:11:37.211Z,98792.97
2018-03-02T19:14:04.698Z,98779.33
2018-03-02T19:16:32.187Z,98785.39
2018-03-02T19:18:59.685Z,98785.39
2018-03-02T19:21:27.158Z,98783.29
2018-03-02T19:23:54.722Z,98790.12
2018-03-02T19:26:22.232Z,98778.24
2018-03-02T19:28:49.783Z,98786.38
2018-03-02T19:31:17.278Z,98790.61
2018-03-02T19:33:44.783Z,98794.45
2018-03-02T19:36:12.356Z,98792.76
2018-03-02T19:38:39.830Z,98785.52
2018-03-02T19:41:07.337Z,98796.63
2018-03-02T19:43:34.872Z,98781.27
2018-03-02T19:46:02.351Z,98782.58
2018-03-02T19:48:29.858Z,98787.26
2018-03-02T19:50:57.368Z,98785.93
2018-03-02T19:53:24.858Z,98788.94
2018-03-02T19:55:52.399Z,98787.66
2018-03-02T19:58:20.754Z,98799.11
2018-03-02T20:00:48.272Z,98789.70
2018-03-02T20:03:15.761Z,98792.21
2018-03-02T20:05:43.302Z,98792.16
2018-03-02T20:08:10.860Z,98801.52
2018-03-02T20:10:38.366Z,98812.98
2018-03-02T20:13:05.844Z,98823.20
2018-03-02T20:15:33.351Z,98820.20
2018-03-02T20:18:00.865Z,98821.04
2018-03-02T20:20:28.370Z,98826.63
2018-03-02T20:22:55.859Z,98834.27
2018-03-02T20:25:23.393Z,98841.13
2018-03-02T20:27:50.884Z,98836.84
2018-03-02T20:30:18.442Z,98841.96
2018-03-02T20:32:46.027Z,98839.77
2018-03-02T20:35:13.580Z,98829.93
2018-03-02T20:37:41.028Z,98836.77
2018-03-02T20:40:08.691Z,98836.34
2018-03-02T20:42:36.217Z,98829.93
2018-03-02T20:45:03.748Z,98829.93
2018-03-02T20:47:31.304Z,98825.64
2018-03-02T20:49:58.808Z,98820.92
2018-03-02T20:52:26.308Z,98813.15
2018-03-02T20:54:53.824Z,98814.35
2018-03-02T20:57:21.317Z,98815.59
2018-03-02T20:59:48.824Z,98810.02
2018-03-02T21:02:16.342Z,98806.13
2018-03-02T21:04:43.876Z,98806.54
2018-03-02T21:07:11.423Z,98797.55
2018-03-02T21:09:38.960Z,98797.97
2018-03-02T21:12:06.519Z,98797.94
2018-03-02T21:14:34.047Z,98794.52
2018-03-02T21:17:01.623Z,98804.72
2018-03-02T21:19:29.128Z,98799.56
2018-03-02T21:21:56.649Z,98802.97
2018-03-02T21:24:24.144Z,98800.82
2018-03-02T21:26:51.701Z,98802.08
2018-03-02T21:29:19.354Z,98799.46
2018-03-02T21:31:46.880Z,98800.72
2018-03-02T21:34:18.976Z,98792.17
2018-03-02T21:36:41.891Z,98796.84
2018-03-02T21:39:12.136Z,98795.91
2018-03-02T21:41:36.950Z,98791.17
2018-03-02T21:44:04.466Z,98794.97
2018-03-02T21:46:31.956Z,98801.33
2018-03-02T21:48:59.514Z,98798.27
2018-03-02T21:51:26.990Z,98803.79
2018-03-02T21:53:54.522Z,98791.36
2018-03-02T21:56:22.024Z,98802.84
2018-03-02T21:58:50.208Z,98801.12
2018-03-02T22:01:17.719Z,98787.44
2018-03-02T22:03:45.200Z,98775.02
2018-03-02T22:06:12.674Z,98769.39
2018-03-02T22:08:40.176Z,98765.52
2018-03-02T22:11:07.663Z,98772.34
2018-03-02T22:13:35.166Z,98780.41
2018-03-02T22:16:02.651Z,98765.50
2018-03-02T22:18:30.147Z,98764.16
2018-03-02T22:20:57.655Z,98769.28
2018-03-02T22:23:25.147Z,98766.28
2018-03-02T22:25:52.650Z,98767.98
2018-03-02T22:28:20.142Z,98778.23
2018-03-02T22:30:47.632Z,98765.86
2018-03-02T22:33:15.113Z,98769.28
2018-03-02T22:35:42.609Z,98759.09
2018-03-02T22:38:10.112Z,98747.12
2018-03-02T22:40:37.620Z,98751.81
2018-03-02T22:43:05.103Z,98748.35
2018-03-02T22:45:32.588Z,98745.79
2018-03-02T22:48:00.097Z,98740.27
2018-03-02T22:50:27.575Z,98741.50
2018-03-02T22:55:30.569Z,98747.88
2018-03-02T22:57:58.084Z,98745.73
2018-03-02T23:00:25.618Z,98746.59
2018-03-02T23:02:53.087Z,98749.14
2018-03-02T23:05:20.586Z,98743.15
2018-03-02T23:07:48.079Z,98751.65
2018-03-02T23:10:16.323Z,98755.49
2018-03-02T23:12:43.815Z,98751.27
2018-03-02T23:15:11.299Z,98747.41
2018-03-02T23:17:38.790Z,98738.83
2018-03-02T23:20:06.280Z,98735.87
2018-03-02T23:22:33.765Z,98731.61
2018-03-02T23:25:01.271Z,98723.44
2018-03-02T23:27:28.758Z,98711.52
2018-03-02T23:29:56.283Z,98710.23
2018-03-02T23:32:23.775Z,98713.19
2018-03-02T23:34:51.267Z,98691.00
2018-03-02T23:37:18.767Z,98683.70
2018-03-02T23:39:46.247Z,98667.42
2018-03-02T23:42:13.727Z,98659.73
2018-03-02T23:44:41.236Z,98650.31
2018-03-02T23:47:08.764Z,98640.48
2018-03-02T23:49:36.254Z,98629.30
2018-03-02T23:52:03.759Z,98632.70
2018-03-02T23:54:31.264Z,98601.44
2018-03-02T23:56:58.756Z,98600.09
2018-03-02T23:59:26.248Z,98594.10
